sensor_id;sensor_type;location;lat;lon;timestamp;P1;durP1;ratioP1;P2;durP2;ratioP2
71125;SDS011;58785;55.566;38.058;2023-04-15T00:01:18;3.17;;;0.38;;
71125;SDS011;58785;55.566;38.058;2023-04-15T00:03:45;2.63;;;0.38;;
71125;SDS011;58785;55.566;38.058;2023-04-15T00:06:11;2.00;;;0.30;;
71125;SDS011;58785;55.566;38.058;2023-04-15T00:08:38;5.47;;;0.40;;
71125;SDS011;58785;55.566;38.058;2023-04-15T00:11:04;2.80;;;0.50;;
71125;SDS011;58785;55.566;38.058;2023-04-15T00:13:30;2.00;;;0.30;;
71125;SDS011;58785;55.566;38.058;2023-04-15T00:15:58;2.57;;;0.40;;
71125;SDS011;58785;55.566;38.058;2023-04-15T00:18:23;2.05;;;0.30;;
71125;SDS011;58785;55.566;38.058;2023-04-15T00:20:49;3.30;;;0.40;;
71125;SDS011;58785;55.566;38.058;2023-04-15T00:23:15;3.60;;;0.50;;
71125;SDS011;58785;55.566;38.058;2023-04-15T00:25:40;3.03;;;0.50;;
71125;SDS011;58785;55.566;38.058;2023-04-15T00:28:06;1.55;;;0.20;;
71125;SDS011;58785;55.566;38.058;2023-04-15T00:30:32;2.20;;;0.20;;
71125;SDS011;58785;55.566;38.058;2023-04-15T00:32:58;2.93;;;0.47;;
71125;SDS011;58785;55.566;38.058;2023-04-15T00:35:23;1.83;;;0.20;;
71125;SDS011;58785;55.566;38.058;2023-04-15T00:37:49;2.75;;;0.40;;
71125;SDS011;58785;55.566;38.058;2023-04-15T00:40:16;2.58;;;0.20;;
71125;SDS011;58785;55.566;38.058;2023-04-15T00:42:43;3.97;;;0.57;;
71125;SDS011;58785;55.566;38.058;2023-04-15T00:45:09;2.92;;;0.82;;
71125;SDS011;58785;55.566;38.058;2023-04-15T00:47:36;2.08;;;0.30;;
71125;SDS011;58785;55.566;38.058;2023-04-15T00:50:03;3.00;;;0.20;;
71125;SDS011;58785;55.566;38.058;2023-04-15T00:52:29;3.15;;;0.57;;
71125;SDS011;58785;55.566;38.058;2023-04-15T00:54:55;3.43;;;0.33;;
71125;SDS011;58785;55.566;38.058;2023-04-15T00:57:20;2.73;;;0.30;;
71125;SDS011;58785;55.566;38.058;2023-04-15T00:59:47;4.15;;;0.70;;
71125;SDS011;58785;55.566;38.058;2023-04-15T01:02:13;2.55;;;0.40;;
71125;SDS011;58785;55.566;38.058;2023-04-15T01:04:39;3.53;;;0.32;;
71125;SDS011;58785;55.566;38.058;2023-04-15T01:07:05;1.25;;;0.40;;
71125;SDS011;58785;55.566;38.058;2023-04-15T01:09:31;3.03;;;0.37;;
71125;SDS011;58785;55.566;38.058;2023-04-15T01:11:57;2.75;;;0.22;;
71125;SDS011;58785;55.566;38.058;2023-04-15T01:14:23;1.80;;;0.20;;
71125;SDS011;58785;55.566;38.058;2023-04-15T01:16:49;1.20;;;0.20;;
71125;SDS011;58785;55.566;38.058;2023-04-15T01:19:17;4.30;;;0.60;;
71125;SDS011;58785;55.566;38.058;2023-04-15T01:21:43;3.42;;;0.40;;
71125;SDS011;58785;55.566;38.058;2023-04-15T01:24:09;1.77;;;0.20;;
71125;SDS011;58785;55.566;38.058;2023-04-15T01:26:39;2.83;;;0.43;;
71125;SDS011;58785;55.566;38.058;2023-04-15T01:29:05;1.73;;;0.30;;
71125;SDS011;58785;55.566;38.058;2023-04-15T01:31:31;4.18;;;0.47;;
71125;SDS011;58785;55.566;38.058;2023-04-15T01:33:57;2.47;;;0.63;;
71125;SDS011;58785;55.566;38.058;2023-04-15T01:36:41;2.45;;;0.43;;
71125;SDS011;58785;55.566;38.058;2023-04-15T01:39:07;3.37;;;0.30;;
71125;SDS011;58785;55.566;38.058;2023-04-15T01:41:32;1.83;;;0.20;;
71125;SDS011;58785;55.566;38.058;2023-04-15T01:43:59;2.97;;;0.73;;
71125;SDS011;58785;55.566;38.058;2023-04-15T01:46:26;3.50;;;0.47;;
71125;SDS011;58785;55.566;38.058;2023-04-15T01:48:53;1.88;;;0.22;;
71125;SDS011;58785;55.566;38.058;2023-04-15T01:51:20;2.78;;;0.50;;
71125;SDS011;58785;55.566;38.058;2023-04-15T01:53:47;4.07;;;0.80;;
71125;SDS011;58785;55.566;38.058;2023-04-15T01:56:14;2.05;;;0.40;;
71125;SDS011;58785;55.566;38.058;2023-04-15T01:58:41;2.30;;;0.93;;
71125;SDS011;58785;55.566;38.058;2023-04-15T02:01:08;3.45;;;0.50;;
71125;SDS011;58785;55.566;38.058;2023-04-15T02:03:35;4.57;;;0.70;;
71125;SDS011;58785;55.566;38.058;2023-04-15T02:06:03;2.63;;;0.40;;
71125;SDS011;58785;55.566;38.058;2023-04-15T02:08:30;2.20;;;0.35;;
71125;SDS011;58785;55.566;38.058;2023-04-15T02:10:57;2.80;;;0.30;;
71125;SDS011;58785;55.566;38.058;2023-04-15T02:13:23;3.85;;;0.40;;
71125;SDS011;58785;55.566;38.058;2023-04-15T02:15:50;1.88;;;0.45;;
71125;SDS011;58785;55.566;38.058;2023-04-15T02:18:18;2.73;;;0.50;;
71125;SDS011;58785;55.566;38.058;2023-04-15T02:20:45;3.30;;;0.70;;
71125;SDS011;58785;55.566;38.058;2023-04-15T02:23:12;3.15;;;0.32;;
71125;SDS011;58785;55.566;38.058;2023-04-15T02:25:39;2.65;;;0.63;;
71125;SDS011;58785;55.566;38.058;2023-04-15T02:28:06;3.58;;;0.40;;
71125;SDS011;58785;55.566;38.058;2023-04-15T02:30:33;3.53;;;0.30;;
71125;SDS011;58785;55.566;38.058;2023-04-15T02:33:00;3.10;;;0.52;;
71125;SDS011;58785;55.566;38.058;2023-04-15T02:35:27;2.63;;;0.50;;
71125;SDS011;58785;55.566;38.058;2023-04-15T02:37:54;3.95;;;0.70;;
71125;SDS011;58785;55.566;38.058;2023-04-15T02:40:21;3.13;;;0.50;;
71125;SDS011;58785;55.566;38.058;2023-04-15T02:42:48;2.47;;;0.33;;
71125;SDS011;58785;55.566;38.058;2023-04-15T02:45:14;2.58;;;0.40;;
71125;SDS011;58785;55.566;38.058;2023-04-15T02:47:41;3.13;;;0.40;;
71125;SDS011;58785;55.566;38.058;2023-04-15T02:50:10;1.80;;;0.45;;
71125;SDS011;58785;55.566;38.058;2023-04-15T02:52:39;2.00;;;0.35;;
71125;SDS011;58785;55.566;38.058;2023-04-15T02:55:07;4.10;;;0.43;;
71125;SDS011;58785;55.566;38.058;2023-04-15T02:57:35;2.80;;;0.57;;
71125;SDS011;58785;55.566;38.058;2023-04-15T03:00:06;1.88;;;0.30;;
71125;SDS011;58785;55.566;38.058;2023-04-15T03:02:35;4.85;;;0.73;;
71125;SDS011;58785;55.566;38.058;2023-04-15T03:05:03;4.00;;;0.40;;
71125;SDS011;58785;55.566;38.058;2023-04-15T03:07:31;2.30;;;0.30;;
71125;SDS011;58785;55.566;38.058;2023-04-15T03:09:58;3.17;;;0.45;;
71125;SDS011;58785;55.566;38.058;2023-04-15T03:12:24;2.88;;;0.45;;
71125;SDS011;58785;55.566;38.058;2023-04-15T03:14:51;2.80;;;0.60;;
71125;SDS011;58785;55.566;38.058;2023-04-15T03:17:18;3.95;;;0.40;;
71125;SDS011;58785;55.566;38.058;2023-04-15T03:19:45;3.57;;;0.63;;
71125;SDS011;58785;55.566;38.058;2023-04-15T03:22:12;3.35;;;0.40;;
71125;SDS011;58785;55.566;38.058;2023-04-15T03:24:39;2.58;;;0.40;;
71125;SDS011;58785;55.566;38.058;2023-04-15T03:27:05;3.05;;;0.50;;
71125;SDS011;58785;55.566;38.058;2023-04-15T03:29:33;3.17;;;0.65;;
71125;SDS011;58785;55.566;38.058;2023-04-15T03:32:00;1.90;;;0.27;;
71125;SDS011;58785;55.566;38.058;2023-04-15T03:34:27;1.52;;;0.22;;
71125;SDS011;58785;55.566;38.058;2023-04-15T03:36:54;3.83;;;0.55;;
71125;SDS011;58785;55.566;38.058;2023-04-15T03:39:21;5.05;;;0.57;;
71125;SDS011;58785;55.566;38.058;2023-04-15T03:41:48;3.95;;;0.60;;
71125;SDS011;58785;55.566;38.058;2023-04-15T03:44:15;3.83;;;0.47;;
71125;SDS011;58785;55.566;38.058;2023-04-15T03:46:42;5.18;;;0.47;;
71125;SDS011;58785;55.566;38.058;2023-04-15T03:49:09;4.75;;;0.63;;
71125;SDS011;58785;55.566;38.058;2023-04-15T03:51:36;3.20;;;0.65;;
71125;SDS011;58785;55.566;38.058;2023-04-15T03:54:03;9.35;;;0.88;;
71125;SDS011;58785;55.566;38.058;2023-04-15T03:56:30;2.77;;;0.67;;
71125;SDS011;58785;55.566;38.058;2023-04-15T03:58:57;2.10;;;0.35;;
71125;SDS011;58785;55.566;38.058;2023-04-15T04:01:23;6.20;;;1.10;;
71125;SDS011;58785;55.566;38.058;2023-04-15T04:03:50;3.80;;;0.63;;
71125;SDS011;58785;55.566;38.058;2023-04-15T04:06:17;1.98;;;0.38;;
71125;SDS011;58785;55.566;38.058;2023-04-15T04:08:44;2.80;;;0.60;;
71125;SDS011;58785;55.566;38.058;2023-04-15T04:11:11;3.97;;;0.85;;
71125;SDS011;58785;55.566;38.058;2023-04-15T04:13:39;6.47;;;0.70;;
71125;SDS011;58785;55.566;38.058;2023-04-15T04:16:06;2.75;;;0.50;;
71125;SDS011;58785;55.566;38.058;2023-04-15T04:18:33;4.68;;;0.90;;
71125;SDS011;58785;55.566;38.058;2023-04-15T04:21:00;3.57;;;0.60;;
71125;SDS011;58785;55.566;38.058;2023-04-15T04:23:26;2.20;;;0.35;;
71125;SDS011;58785;55.566;38.058;2023-04-15T04:25:53;4.25;;;0.60;;
71125;SDS011;58785;55.566;38.058;2023-04-15T04:28:20;4.15;;;0.60;;
71125;SDS011;58785;55.566;38.058;2023-04-15T04:30:47;4.55;;;0.80;;
71125;SDS011;58785;55.566;38.058;2023-04-15T04:33:14;4.70;;;0.60;;
71125;SDS011;58785;55.566;38.058;2023-04-15T04:35:41;1.85;;;0.32;;
71125;SDS011;58785;55.566;38.058;2023-04-15T04:38:08;1.90;;;0.25;;
71125;SDS011;58785;55.566;38.058;2023-04-15T04:40:34;3.25;;;0.65;;
71125;SDS011;58785;55.566;38.058;2023-04-15T04:43:02;1.92;;;0.38;;
71125;SDS011;58785;55.566;38.058;2023-04-15T04:45:28;3.07;;;0.47;;
71125;SDS011;58785;55.566;38.058;2023-04-15T04:47:56;4.38;;;0.70;;
71125;SDS011;58785;55.566;38.058;2023-04-15T04:50:22;2.38;;;0.30;;
71125;SDS011;58785;55.566;38.058;2023-04-15T04:52:49;2.42;;;0.60;;
71125;SDS011;58785;55.566;38.058;2023-04-15T04:55:16;6.78;;;0.63;;
71125;SDS011;58785;55.566;38.058;2023-04-15T04:57:45;6.80;;;0.80;;
71125;SDS011;58785;55.566;38.058;2023-04-15T05:00:12;3.20;;;0.57;;
71125;SDS011;58785;55.566;38.058;2023-04-15T05:02:40;2.58;;;0.32;;
71125;SDS011;58785;55.566;38.058;2023-04-15T05:05:09;2.83;;;0.40;;
71125;SDS011;58785;55.566;38.058;2023-04-15T05:07:37;3.08;;;0.35;;
71125;SDS011;58785;55.566;38.058;2023-04-15T05:10:05;6.20;;;0.70;;
71125;SDS011;58785;55.566;38.058;2023-04-15T05:12:32;2.55;;;0.40;;
71125;SDS011;58785;55.566;38.058;2023-04-15T05:14:59;3.03;;;0.43;;
71125;SDS011;58785;55.566;38.058;2023-04-15T05:17:26;2.95;;;0.50;;
71125;SDS011;58785;55.566;38.058;2023-04-15T05:19:53;2.35;;;0.40;;
71125;SDS011;58785;55.566;38.058;2023-04-15T05:22:20;1.80;;;0.20;;
71125;SDS011;58785;55.566;38.058;2023-04-15T05:24:47;3.60;;;0.50;;
71125;SDS011;58785;55.566;38.058;2023-04-15T05:27:14;3.08;;;0.50;;
71125;SDS011;58785;55.566;38.058;2023-04-15T05:29:41;3.67;;;0.50;;
71125;SDS011;58785;55.566;38.058;2023-04-15T05:32:08;3.10;;;0.30;;
71125;SDS011;58785;55.566;38.058;2023-04-15T05:34:34;3.00;;;0.50;;
71125;SDS011;58785;55.566;38.058;2023-04-15T05:37:01;3.17;;;0.52;;
71125;SDS011;58785;55.566;38.058;2023-04-15T05:39:28;7.15;;;0.73;;
71125;SDS011;58785;55.566;38.058;2023-04-15T05:41:56;3.97;;;0.77;;
71125;SDS011;58785;55.566;38.058;2023-04-15T05:44:23;6.78;;;0.65;;
71125;SDS011;58785;55.566;38.058;2023-04-15T05:46:50;2.90;;;0.40;;
71125;SDS011;58785;55.566;38.058;2023-04-15T05:49:17;2.83;;;0.35;;
71125;SDS011;58785;55.566;38.058;2023-04-15T05:51:44;4.97;;;0.65;;
71125;SDS011;58785;55.566;38.058;2023-04-15T05:54:12;3.03;;;0.40;;
71125;SDS011;58785;55.566;38.058;2023-04-15T05:56:39;2.88;;;0.40;;
71125;SDS011;58785;55.566;38.058;2023-04-15T05:59:06;4.07;;;0.47;;
71125;SDS011;58785;55.566;38.058;2023-04-15T06:01:33;4.95;;;0.77;;
71125;SDS011;58785;55.566;38.058;2023-04-15T06:04:00;3.03;;;0.43;;
71125;SDS011;58785;55.566;38.058;2023-04-15T06:06:28;3.08;;;0.70;;
71125;SDS011;58785;55.566;38.058;2023-04-15T06:08:55;3.22;;;0.40;;
71125;SDS011;58785;55.566;38.058;2023-04-15T06:11:22;4.47;;;0.80;;
71125;SDS011;58785;55.566;38.058;2023-04-15T06:13:49;3.10;;;0.60;;
71125;SDS011;58785;55.566;38.058;2023-04-15T06:16:16;3.10;;;0.35;;
71125;SDS011;58785;55.566;38.058;2023-04-15T06:18:43;3.53;;;0.70;;
71125;SDS011;58785;55.566;38.058;2023-04-15T06:21:11;10.60;;;0.90;;
71125;SDS011;58785;55.566;38.058;2023-04-15T06:23:38;3.63;;;0.43;;
71125;SDS011;58785;55.566;38.058;2023-04-15T06:26:06;6.32;;;0.98;;
71125;SDS011;58785;55.566;38.058;2023-04-15T06:28:33;3.15;;;0.50;;
71125;SDS011;58785;55.566;38.058;2023-04-15T06:31:00;2.78;;;0.57;;
71125;SDS011;58785;55.566;38.058;2023-04-15T06:33:27;2.90;;;0.70;;
71125;SDS011;58785;55.566;38.058;2023-04-15T06:35:54;5.73;;;0.33;;
71125;SDS011;58785;55.566;38.058;2023-04-15T06:38:21;4.32;;;0.60;;
71125;SDS011;58785;55.566;38.058;2023-04-15T06:40:48;4.47;;;0.50;;
71125;SDS011;58785;55.566;38.058;2023-04-15T06:43:17;3.05;;;0.50;;
71125;SDS011;58785;55.566;38.058;2023-04-15T06:45:43;3.65;;;0.93;;
71125;SDS011;58785;55.566;38.058;2023-04-15T06:48:11;7.47;;;1.70;;
71125;SDS011;58785;55.566;38.058;2023-04-15T06:50:38;4.63;;;1.27;;
71125;SDS011;58785;55.566;38.058;2023-04-15T06:53:05;5.47;;;1.23;;
71125;SDS011;58785;55.566;38.058;2023-04-15T06:55:32;3.67;;;0.70;;
71125;SDS011;58785;55.566;38.058;2023-04-15T06:57:59;5.85;;;0.60;;
71125;SDS011;58785;55.566;38.058;2023-04-15T07:00:26;5.47;;;0.77;;
71125;SDS011;58785;55.566;38.058;2023-04-15T07:02:53;2.85;;;0.60;;
71125;SDS011;58785;55.566;38.058;2023-04-15T07:05:21;5.68;;;0.70;;
71125;SDS011;58785;55.566;38.058;2023-04-15T07:07:48;4.60;;;0.55;;
71125;SDS011;58785;55.566;38.058;2023-04-15T07:10:15;2.88;;;0.50;;
71125;SDS011;58785;55.566;38.058;2023-04-15T07:12:42;6.07;;;0.80;;
71125;SDS011;58785;55.566;38.058;2023-04-15T07:15:09;3.15;;;0.60;;
71125;SDS011;58785;55.566;38.058;2023-04-15T07:17:36;4.78;;;0.90;;
71125;SDS011;58785;55.566;38.058;2023-04-15T07:20:03;3.47;;;0.60;;
71125;SDS011;58785;55.566;38.058;2023-04-15T07:22:31;3.40;;;0.60;;
71125;SDS011;58785;55.566;38.058;2023-04-15T07:24:58;4.63;;;1.23;;
71125;SDS011;58785;55.566;38.058;2023-04-15T07:27:25;3.80;;;0.80;;
71125;SDS011;58785;55.566;38.058;2023-04-15T07:29:52;3.42;;;0.73;;
71125;SDS011;58785;55.566;38.058;2023-04-15T07:32:19;3.00;;;0.50;;
71125;SDS011;58785;55.566;38.058;2023-04-15T07:34:46;3.80;;;0.68;;
71125;SDS011;58785;55.566;38.058;2023-04-15T07:37:13;4.07;;;0.77;;
71125;SDS011;58785;55.566;38.058;2023-04-15T07:39:40;2.95;;;0.73;;
71125;SDS011;58785;55.566;38.058;2023-04-15T07:42:08;2.70;;;0.50;;
71125;SDS011;58785;55.566;38.058;2023-04-15T07:44:34;4.65;;;0.60;;
71125;SDS011;58785;55.566;38.058;2023-04-15T07:47:01;2.40;;;0.40;;
71125;SDS011;58785;55.566;38.058;2023-04-15T07:49:29;3.87;;;0.70;;
71125;SDS011;58785;55.566;38.058;2023-04-15T07:51:56;3.20;;;0.80;;
71125;SDS011;58785;55.566;38.058;2023-04-15T07:54:25;3.85;;;0.75;;
71125;SDS011;58785;55.566;38.058;2023-04-15T07:56:52;3.28;;;0.57;;
71125;SDS011;58785;55.566;38.058;2023-04-15T07:59:19;3.45;;;0.50;;
71125;SDS011;58785;55.566;38.058;2023-04-15T08:01:46;3.10;;;0.70;;
71125;SDS011;58785;55.566;38.058;2023-04-15T08:04:14;4.45;;;0.63;;
71125;SDS011;58785;55.566;38.058;2023-04-15T08:06:41;4.38;;;0.80;;
71125;SDS011;58785;55.566;38.058;2023-04-15T08:09:08;4.72;;;0.80;;
71125;SDS011;58785;55.566;38.058;2023-04-15T08:11:35;5.57;;;1.00;;
71125;SDS011;58785;55.566;38.058;2023-04-15T08:14:02;6.93;;;2.07;;
71125;SDS011;58785;55.566;38.058;2023-04-15T08:16:29;3.83;;;1.23;;
71125;SDS011;58785;55.566;38.058;2023-04-15T08:18:56;4.05;;;1.10;;
71125;SDS011;58785;55.566;38.058;2023-04-15T08:21:23;4.13;;;0.55;;
71125;SDS011;58785;55.566;38.058;2023-04-15T08:23:51;5.85;;;0.75;;
71125;SDS011;58785;55.566;38.058;2023-04-15T08:26:19;3.80;;;0.80;;
71125;SDS011;58785;55.566;38.058;2023-04-15T08:28:46;8.82;;;1.13;;
71125;SDS011;58785;55.566;38.058;2023-04-15T08:31:14;6.93;;;1.00;;
71125;SDS011;58785;55.566;38.058;2023-04-15T08:33:42;7.97;;;3.45;;
71125;SDS011;58785;55.566;38.058;2023-04-15T08:36:09;5.07;;;1.33;;
71125;SDS011;58785;55.566;38.058;2023-04-15T08:38:36;6.23;;;2.13;;
71125;SDS011;58785;55.566;38.058;2023-04-15T08:41:15;10.93;;;3.22;;
71125;SDS011;58785;55.566;38.058;2023-04-15T08:43:51;4.47;;;1.05;;
71125;SDS011;58785;55.566;38.058;2023-04-15T08:46:20;4.05;;;1.00;;
71125;SDS011;58785;55.566;38.058;2023-04-15T08:48:48;4.18;;;0.90;;
71125;SDS011;58785;55.566;38.058;2023-04-15T08:51:16;4.37;;;1.20;;
71125;SDS011;58785;55.566;38.058;2023-04-15T08:53:46;4.75;;;1.00;;
71125;SDS011;58785;55.566;38.058;2023-04-15T08:56:13;5.45;;;1.05;;
71125;SDS011;58785;55.566;38.058;2023-04-15T08:58:42;4.15;;;0.60;;
71125;SDS011;58785;55.566;38.058;2023-04-15T09:01:10;6.15;;;1.40;;
71125;SDS011;58785;55.566;38.058;2023-04-15T09:03:38;4.63;;;0.90;;
71125;SDS011;58785;55.566;38.058;2023-04-15T09:06:06;4.72;;;1.35;;
71125;SDS011;58785;55.566;38.058;2023-04-15T09:08:33;4.70;;;1.27;;
71125;SDS011;58785;55.566;38.058;2023-04-15T09:11:02;6.25;;;1.20;;
71125;SDS011;58785;55.566;38.058;2023-04-15T09:13:29;4.10;;;0.80;;
71125;SDS011;58785;55.566;38.058;2023-04-15T09:15:56;9.90;;;0.80;;
71125;SDS011;58785;55.566;38.058;2023-04-15T09:18:31;7.10;;;1.15;;
71125;SDS011;58785;55.566;38.058;2023-04-15T09:21:12;6.13;;;1.35;;
71125;SDS011;58785;55.566;38.058;2023-04-15T09:23:41;3.88;;;0.98;;
71125;SDS011;58785;55.566;38.058;2023-04-15T09:26:34;7.28;;;1.17;;
71125;SDS011;58785;55.566;38.058;2023-04-15T09:29:08;4.00;;;0.93;;
71125;SDS011;58785;55.566;38.058;2023-04-15T09:31:39;3.83;;;1.10;;
71125;SDS011;58785;55.566;38.058;2023-04-15T09:34:06;2.83;;;0.70;;
71125;SDS011;58785;55.566;38.058;2023-04-15T09:39:13;4.70;;;1.10;;
71125;SDS011;58785;55.566;38.058;2023-04-15T09:41:40;4.37;;;1.13;;
71125;SDS011;58785;55.566;38.058;2023-04-15T09:44:07;6.38;;;1.23;;
71125;SDS011;58785;55.566;38.058;2023-04-15T09:46:51;4.90;;;1.30;;
71125;SDS011;58785;55.566;38.058;2023-04-15T09:49:18;4.32;;;0.80;;
71125;SDS011;58785;55.566;38.058;2023-04-15T09:51:46;5.03;;;0.90;;
71125;SDS011;58785;55.566;38.058;2023-04-15T09:54:13;5.13;;;1.20;;
71125;SDS011;58785;55.566;38.058;2023-04-15T09:56:46;6.40;;;1.27;;
71125;SDS011;58785;55.566;38.058;2023-04-15T09:59:13;5.45;;;1.50;;
71125;SDS011;58785;55.566;38.058;2023-04-15T10:01:41;4.18;;;1.08;;
71125;SDS011;58785;55.566;38.058;2023-04-15T10:04:08;4.20;;;0.75;;
71125;SDS011;58785;55.566;38.058;2023-04-15T10:06:36;4.40;;;0.97;;
71125;SDS011;58785;55.566;38.058;2023-04-15T10:09:04;4.60;;;0.80;;
71125;SDS011;58785;55.566;38.058;2023-04-15T10:11:31;4.25;;;0.90;;
71125;SDS011;58785;55.566;38.058;2023-04-15T10:14:00;5.00;;;0.93;;
71125;SDS011;58785;55.566;38.058;2023-04-15T10:16:28;7.20;;;1.40;;
71125;SDS011;58785;55.566;38.058;2023-04-15T10:18:59;5.07;;;1.23;;
71125;SDS011;58785;55.566;38.058;2023-04-15T10:21:27;5.22;;;1.13;;
71125;SDS011;58785;55.566;38.058;2023-04-15T10:23:56;5.00;;;0.73;;
71125;SDS011;58785;55.566;38.058;2023-04-15T10:26:23;5.28;;;1.00;;
71125;SDS011;58785;55.566;38.058;2023-04-15T10:28:50;4.63;;;0.90;;
71125;SDS011;58785;55.566;38.058;2023-04-15T10:31:18;3.00;;;0.70;;
71125;SDS011;58785;55.566;38.058;2023-04-15T10:33:46;4.90;;;1.00;;
71125;SDS011;58785;55.566;38.058;2023-04-15T10:36:14;5.80;;;1.15;;
71125;SDS011;58785;55.566;38.058;2023-04-15T10:38:42;4.00;;;0.93;;
71125;SDS011;58785;55.566;38.058;2023-04-15T10:41:14;6.00;;;1.15;;
71125;SDS011;58785;55.566;38.058;2023-04-15T10:43:56;3.77;;;0.73;;
71125;SDS011;58785;55.566;38.058;2023-04-15T10:46:36;5.60;;;1.30;;
71125;SDS011;58785;55.566;38.058;2023-04-15T10:51:45;3.95;;;1.30;;
71125;SDS011;58785;55.566;38.058;2023-04-15T10:54:29;4.30;;;1.02;;
71125;SDS011;58785;55.566;38.058;2023-04-15T10:59:28;5.75;;;0.90;;
71125;SDS011;58785;55.566;38.058;2023-04-15T11:02:16;4.30;;;0.77;;
71125;SDS011;58785;55.566;38.058;2023-04-15T11:04:58;3.55;;;0.88;;
71125;SDS011;58785;55.566;38.058;2023-04-15T11:12:43;3.35;;;0.82;;
71125;SDS011;58785;55.566;38.058;2023-04-15T11:20:45;7.00;;;1.20;;
71125;SDS011;58785;55.566;38.058;2023-04-15T11:23:17;3.67;;;0.60;;
71125;SDS011;58785;55.566;38.058;2023-04-15T11:25:45;4.03;;;0.90;;
71125;SDS011;58785;55.566;38.058;2023-04-15T11:28:12;5.85;;;1.42;;
71125;SDS011;58785;55.566;38.058;2023-04-15T11:30:39;4.75;;;1.23;;
71125;SDS011;58785;55.566;38.058;2023-04-15T11:33:08;5.75;;;1.20;;
71125;SDS011;58785;55.566;38.058;2023-04-15T11:35:39;3.90;;;0.87;;
71125;SDS011;58785;55.566;38.058;2023-04-15T11:38:07;3.83;;;0.70;;
71125;SDS011;58785;55.566;38.058;2023-04-15T11:40:39;3.42;;;0.88;;
71125;SDS011;58785;55.566;38.058;2023-04-15T11:43:10;6.10;;;0.88;;
71125;SDS011;58785;55.566;38.058;2023-04-15T11:45:47;5.07;;;0.80;;
71125;SDS011;58785;55.566;38.058;2023-04-15T11:48:20;5.43;;;1.10;;
71125;SDS011;58785;55.566;38.058;2023-04-15T11:50:52;4.72;;;0.98;;
71125;SDS011;58785;55.566;38.058;2023-04-15T11:53:23;5.25;;;0.98;;
71125;SDS011;58785;55.566;38.058;2023-04-15T11:56:00;4.70;;;1.13;;
71125;SDS011;58785;55.566;38.058;2023-04-15T11:58:26;4.18;;;0.80;;
71125;SDS011;58785;55.566;38.058;2023-04-15T12:00:54;5.33;;;1.20;;
71125;SDS011;58785;55.566;38.058;2023-04-15T12:03:25;6.00;;;1.17;;
71125;SDS011;58785;55.566;38.058;2023-04-15T12:11:45;6.70;;;2.20;;
71125;SDS011;58785;55.566;38.058;2023-04-15T12:16:56;6.15;;;1.83;;
71125;SDS011;58785;55.566;38.058;2023-04-15T12:19:33;9.57;;;1.70;;
71125;SDS011;58785;55.566;38.058;2023-04-15T12:22:01;5.47;;;1.40;;
71125;SDS011;58785;55.566;38.058;2023-04-15T12:24:31;4.18;;;1.23;;
71125;SDS011;58785;55.566;38.058;2023-04-15T12:27:05;4.20;;;1.00;;
71125;SDS011;58785;55.566;38.058;2023-04-15T12:29:33;5.10;;;1.25;;
71125;SDS011;58785;55.566;38.058;2023-04-15T12:32:09;8.35;;;1.60;;
71125;SDS011;58785;55.566;38.058;2023-04-15T12:34:39;5.93;;;1.20;;
71125;SDS011;58785;55.566;38.058;2023-04-15T12:37:08;5.75;;;1.65;;
71125;SDS011;58785;55.566;38.058;2023-04-15T12:39:36;5.07;;;1.20;;
71125;SDS011;58785;55.566;38.058;2023-04-15T12:42:04;5.97;;;1.60;;
71125;SDS011;58785;55.566;38.058;2023-04-15T12:44:30;5.25;;;1.38;;
71125;SDS011;58785;55.566;38.058;2023-04-15T12:46:57;3.17;;;0.90;;
71125;SDS011;58785;55.566;38.058;2023-04-15T12:49:26;5.60;;;1.20;;
71125;SDS011;58785;55.566;38.058;2023-04-15T12:51:53;5.43;;;1.13;;
71125;SDS011;58785;55.566;38.058;2023-04-15T12:54:21;5.63;;;1.27;;
71125;SDS011;58785;55.566;38.058;2023-04-15T12:56:48;4.35;;;1.27;;
71125;SDS011;58785;55.566;38.058;2023-04-15T12:59:15;4.68;;;1.30;;
71125;SDS011;58785;55.566;38.058;2023-04-15T13:01:45;5.18;;;1.20;;
71125;SDS011;58785;55.566;38.058;2023-04-15T13:04:13;8.10;;;1.17;;
71125;SDS011;58785;55.566;38.058;2023-04-15T13:06:39;6.38;;;1.02;;
71125;SDS011;58785;55.566;38.058;2023-04-15T13:09:05;6.13;;;1.00;;
71125;SDS011;58785;55.566;38.058;2023-04-15T13:11:31;3.67;;;1.10;;
71125;SDS011;58785;55.566;38.058;2023-04-15T13:14:01;4.88;;;1.20;;
71125;SDS011;58785;55.566;38.058;2023-04-15T13:16:29;5.80;;;1.10;;
71125;SDS011;58785;55.566;38.058;2023-04-15T13:18:56;5.07;;;1.48;;
71125;SDS011;58785;55.566;38.058;2023-04-15T13:21:26;6.82;;;2.03;;
71125;SDS011;58785;55.566;38.058;2023-04-15T13:23:52;6.15;;;1.42;;
71125;SDS011;58785;55.566;38.058;2023-04-15T13:26:18;5.65;;;1.00;;
71125;SDS011;58785;55.566;38.058;2023-04-15T13:28:44;4.67;;;1.07;;
71125;SDS011;58785;55.566;38.058;2023-04-15T13:31:10;4.30;;;1.00;;
71125;SDS011;58785;55.566;38.058;2023-04-15T13:33:36;4.00;;;1.10;;
71125;SDS011;58785;55.566;38.058;2023-04-15T13:36:01;4.97;;;1.10;;
71125;SDS011;58785;55.566;38.058;2023-04-15T13:38:27;4.07;;;0.82;;
71125;SDS011;58785;55.566;38.058;2023-04-15T13:40:53;5.10;;;1.17;;
71125;SDS011;58785;55.566;38.058;2023-04-15T13:43:18;3.55;;;0.80;;
71125;SDS011;58785;55.566;38.058;2023-04-15T13:45:45;5.20;;;0.93;;
71125;SDS011;58785;55.566;38.058;2023-04-15T13:48:11;4.22;;;0.98;;
71125;SDS011;58785;55.566;38.058;2023-04-15T13:50:37;3.53;;;0.90;;
71125;SDS011;58785;55.566;38.058;2023-04-15T13:53:03;3.87;;;1.00;;
71125;SDS011;58785;55.566;38.058;2023-04-15T13:55:28;4.55;;;1.10;;
71125;SDS011;58785;55.566;38.058;2023-04-15T13:57:55;7.20;;;1.37;;
71125;SDS011;58785;55.566;38.058;2023-04-15T14:00:21;5.82;;;0.90;;
71125;SDS011;58785;55.566;38.058;2023-04-15T14:02:47;4.10;;;0.93;;
71125;SDS011;58785;55.566;38.058;2023-04-15T14:05:12;4.82;;;1.05;;
71125;SDS011;58785;55.566;38.058;2023-04-15T14:07:39;4.67;;;0.90;;
71125;SDS011;58785;55.566;38.058;2023-04-15T14:10:05;6.13;;;1.38;;
71125;SDS011;58785;55.566;38.058;2023-04-15T14:12:31;8.48;;;3.03;;
71125;SDS011;58785;55.566;38.058;2023-04-15T14:14:57;4.63;;;1.20;;
71125;SDS011;58785;55.566;38.058;2023-04-15T14:17:23;5.10;;;1.20;;
71125;SDS011;58785;55.566;38.058;2023-04-15T14:19:49;7.88;;;2.58;;
71125;SDS011;58785;55.566;38.058;2023-04-15T14:22:15;7.32;;;1.83;;
71125;SDS011;58785;55.566;38.058;2023-04-15T14:24:42;4.60;;;1.05;;
71125;SDS011;58785;55.566;38.058;2023-04-15T14:27:08;4.47;;;0.93;;
71125;SDS011;58785;55.566;38.058;2023-04-15T14:29:35;6.00;;;1.00;;
71125;SDS011;58785;55.566;38.058;2023-04-15T14:32:01;6.55;;;1.15;;
71125;SDS011;58785;55.566;38.058;2023-04-15T14:34:26;5.07;;;1.30;;
71125;SDS011;58785;55.566;38.058;2023-04-15T14:36:52;9.15;;;1.40;;
71125;SDS011;58785;55.566;38.058;2023-04-15T14:39:18;8.13;;;1.60;;
71125;SDS011;58785;55.566;38.058;2023-04-15T14:41:44;5.25;;;2.20;;
71125;SDS011;58785;55.566;38.058;2023-04-15T14:44:10;5.55;;;1.02;;
71125;SDS011;58785;55.566;38.058;2023-04-15T14:46:36;5.80;;;1.20;;
71125;SDS011;58785;55.566;38.058;2023-04-15T14:49:03;6.80;;;1.52;;
71125;SDS011;58785;55.566;38.058;2023-04-15T14:51:29;6.85;;;1.60;;
71125;SDS011;58785;55.566;38.058;2023-04-15T14:53:56;6.20;;;2.08;;
71125;SDS011;58785;55.566;38.058;2023-04-15T14:56:21;5.00;;;1.23;;
71125;SDS011;58785;55.566;38.058;2023-04-15T14:58:47;6.10;;;1.23;;
71125;SDS011;58785;55.566;38.058;2023-04-15T15:01:13;6.85;;;1.08;;
71125;SDS011;58785;55.566;38.058;2023-04-15T15:03:39;5.63;;;0.80;;